createdAt,value
2023-05-10T00:00:21.288Z,14.1
2023-05-10T00:01:22.471Z,14.1
2023-05-10T00:02:23.723Z,14.1
2023-05-10T00:03:25.465Z,14.1
2023-05-10T00:04:26.822Z,14.1
2023-05-10T00:05:27.986Z,14
2023-05-10T00:06:29.166Z,14
2023-05-10T00:07:30.322Z,14
2023-05-10T00:08:31.493Z,14
2023-05-10T00:09:32.653Z,14
2023-05-10T00:10:33.828Z,14
2023-05-10T00:11:35.041Z,14
2023-05-10T00:12:36.193Z,14
2023-05-10T00:13:37.343Z,14
2023-05-10T00:14:38.505Z,13.9
2023-05-10T00:15:39.669Z,13.9
2023-05-10T00:16:40.900Z,13.9
2023-05-10T00:17:42.102Z,13.9
2023-05-10T00:18:43.290Z,13.9
2023-05-10T00:19:44.448Z,13.9
2023-05-10T00:20:45.628Z,13.9
2023-05-10T00:21:46.801Z,13.9
2023-05-10T00:22:47.950Z,13.9
2023-05-10T00:23:49.120Z,13.8
2023-05-10T00:24:50.280Z,13.8
2023-05-10T00:25:51.449Z,13.8
2023-05-10T00:26:52.672Z,13.8
2023-05-10T00:27:53.821Z,13.8
2023-05-10T00:28:55.021Z,13.8
2023-05-10T00:29:56.184Z,13.8
2023-05-10T00:30:57.357Z,13.8
2023-05-10T00:31:58.561Z,13.7
2023-05-10T00:32:59.810Z,13.7
2023-05-10T00:34:01.034Z,13.7
2023-05-10T00:35:02.205Z,13.7
2023-05-10T00:36:03.372Z,13.7
2023-05-10T00:37:04.587Z,13.7
2023-05-10T00:38:05.746Z,13.7
2023-05-10T00:39:06.953Z,13.7
2023-05-10T00:40:08.110Z,13.7
2023-05-10T00:41:09.270Z,13.7
2023-05-10T00:42:10.529Z,13.7
2023-05-10T00:43:11.720Z,13.6
2023-05-10T00:44:12.857Z,13.6
2023-05-10T00:45:14.051Z,13.6
2023-05-10T00:46:15.254Z,13.6
2023-05-10T00:47:16.845Z,13.6
2023-05-10T00:48:17.977Z,13.6
2023-05-10T00:49:19.166Z,13.6
2023-05-10T00:50:20.353Z,13.6
2023-05-10T00:51:21.509Z,13.5
2023-05-10T00:52:22.690Z,13.5
2023-05-10T00:53:23.822Z,13.5
2023-05-10T00:54:25.022Z,13.5
2023-05-10T00:55:26.153Z,13.5
2023-05-10T00:56:27.315Z,13.5
2023-05-10T00:57:28.621Z,13.5
2023-05-10T00:58:29.757Z,13.5
2023-05-10T00:59:30.925Z,13.5
2023-05-10T01:00:32.091Z,13.4
2023-05-10T01:01:33.269Z,13.5
2023-05-10T01:02:34.592Z,13.4
2023-05-10T01:03:36.058Z,13.4
2023-05-10T01:04:37.263Z,13.4
2023-05-10T01:05:38.725Z,13.4
2023-05-10T01:06:39.875Z,13.4
2023-05-10T01:07:41.122Z,13.4
2023-05-10T01:08:42.249Z,13.4
2023-05-10T01:09:43.417Z,13.4
2023-05-10T01:10:44.614Z,13.4
2023-05-10T01:11:45.783Z,13.4
2023-05-10T01:12:47.021Z,13.4
2023-05-10T01:13:49.350Z,13.3
2023-05-10T01:14:50.471Z,13.3
2023-05-10T01:15:51.641Z,13.3
2023-05-10T01:16:52.802Z,13.3
2023-05-10T01:17:54.003Z,13.3
2023-05-10T01:18:55.152Z,13.3
2023-05-10T01:19:56.316Z,13.3
2023-05-10T01:20:57.483Z,13.3
2023-05-10T01:21:58.649Z,13.3
2023-05-10T01:22:59.841Z,13.3
2023-05-10T01:24:00.982Z,13.3
2023-05-10T01:25:02.148Z,13.2
2023-05-10T01:26:03.311Z,13.2
2023-05-10T01:27:04.479Z,13.2
2023-05-10T01:28:05.687Z,13.2
2023-05-10T01:29:06.818Z,13.2
2023-05-10T01:30:15.265Z,13.2
2023-05-10T01:31:17.254Z,13.2
2023-05-10T01:32:18.422Z,13.2
2023-05-10T01:33:19.602Z,13.2
2023-05-10T01:34:20.754Z,13.1
2023-05-10T01:35:21.923Z,13.1
2023-05-10T01:36:23.093Z,13.1
2023-05-10T01:37:24.256Z,13.1
2023-05-10T01:38:25.453Z,13.1
2023-05-10T01:39:26.601Z,13.1
2023-05-10T01:40:27.750Z,13.1
2023-05-10T01:41:28.920Z,13.1
2023-05-10T01:42:30.077Z,13.1
2023-05-10T01:43:31.281Z,13.1
2023-05-10T01:44:32.406Z,13
2023-05-10T01:45:33.581Z,13
2023-05-10T01:46:34.767Z,13
2023-05-10T01:47:35.995Z,13
2023-05-10T01:48:37.736Z,13
2023-05-10T01:49:38.881Z,13
2023-05-10T01:50:40.030Z,13
2023-05-10T01:51:41.258Z,13
2023-05-10T01:52:42.391Z,13
2023-05-10T01:53:43.615Z,13
2023-05-10T01:54:44.820Z,13
2023-05-10T01:55:46.041Z,12.9
2023-05-10T01:56:47.202Z,12.9
2023-05-10T01:57:48.370Z,12.9
2023-05-10T01:58:49.569Z,12.9
2023-05-10T01:59:50.706Z,12.9
2023-05-10T02:00:51.899Z,12.9
2023-05-10T02:01:53.099Z,12.9
2023-05-10T02:02:54.278Z,12.9
2023-05-10T02:03:55.477Z,12.9
2023-05-10T02:04:56.701Z,12.9
2023-05-10T02:05:57.864Z,12.9
2023-05-10T02:06:59.047Z,12.9
2023-05-10T02:08:00.219Z,12.8
2023-05-10T02:09:01.407Z,12.8
2023-05-10T02:10:02.589Z,12.8
2023-05-10T02:11:03.721Z,12.8
2023-05-10T02:12:04.925Z,12.8
2023-05-10T02:13:06.167Z,12.8
2023-05-10T02:14:07.492Z,12.8
2023-05-10T02:15:08.789Z,12.8
2023-05-10T02:16:09.974Z,12.8
2023-05-10T02:17:11.116Z,12.8
2023-05-10T02:18:12.293Z,12.8
2023-05-10T02:19:13.473Z,12.8
2023-05-10T02:20:18.187Z,12.8
2023-05-10T02:21:23.179Z,12.8
2023-05-10T02:22:24.336Z,12.8
2023-05-10T02:23:25.505Z,12.8
2023-05-10T02:24:26.697Z,12.8
2023-05-10T02:25:27.835Z,12.8
2023-05-10T02:26:29.022Z,12.8
2023-05-10T02:27:30.188Z,12.8
2023-05-10T02:28:31.340Z,12.7
2023-05-10T02:29:32.556Z,12.8
2023-05-10T02:30:33.687Z,12.7
2023-05-10T02:31:34.951Z,12.7
2023-05-10T02:32:36.223Z,12.7
2023-05-10T02:33:37.373Z,12.7
2023-05-10T02:34:38.580Z,12.7
2023-05-10T02:35:39.714Z,12.7
2023-05-10T02:36:40.915Z,12.7
2023-05-10T02:37:42.084Z,12.7
2023-05-10T02:38:43.257Z,12.7
2023-05-10T02:39:44.450Z,12.7
2023-05-10T02:40:45.597Z,12.7
2023-05-10T02:41:46.755Z,12.7
2023-05-10T02:42:47.917Z,12.7
2023-05-10T02:43:49.086Z,12.7
2023-05-10T02:44:50.293Z,12.7
2023-05-10T02:45:51.472Z,12.7
2023-05-10T02:46:52.740Z,12.7
2023-05-10T02:47:53.913Z,12.6
2023-05-10T02:48:55.207Z,12.6
2023-05-10T02:49:56.703Z,12.6
2023-05-10T02:50:57.868Z,12.6
2023-05-10T02:51:59.040Z,12.6
2023-05-10T02:53:00.213Z,12.6
2023-05-10T02:54:01.453Z,12.6
2023-05-10T02:55:02.679Z,12.6
2023-05-10T02:56:03.825Z,12.6
2023-05-10T02:57:04.986Z,12.6
2023-05-10T02:58:06.147Z,12.6
2023-05-10T02:59:07.308Z,12.6
2023-05-10T03:00:08.520Z,12.6
2023-05-10T03:01:09.681Z,12.6
2023-05-10T03:02:10.951Z,12.6
2023-05-10T03:03:12.116Z,12.5
2023-05-10T03:04:13.314Z,12.5
2023-05-10T03:05:14.475Z,12.5
2023-05-10T03:06:15.638Z,12.5
2023-05-10T03:07:16.823Z,12.5
2023-05-10T03:08:18.475Z,12.5
2023-05-10T03:09:19.657Z,12.5
2023-05-10T03:10:20.895Z,12.5
2023-05-10T03:11:22.029Z,12.5
2023-05-10T03:12:23.223Z,12.5
2023-05-10T03:13:24.478Z,12.5
2023-05-10T03:14:25.769Z,12.5
2023-05-10T03:15:26.944Z,12.5
2023-05-10T03:16:28.311Z,12.5
2023-05-10T03:17:29.714Z,12.5
2023-05-10T03:18:30.862Z,12.5
2023-05-10T03:19:32.044Z,12.5
2023-05-10T03:20:33.214Z,12.5
2023-05-10T03:21:34.360Z,12.5
2023-05-10T03:22:35.586Z,12.5
2023-05-10T03:23:36.731Z,12.5
2023-05-10T03:24:37.917Z,12.5
2023-05-10T03:25:39.105Z,12.5
2023-05-10T03:26:40.235Z,12.5
2023-05-10T03:27:41.391Z,12.5
2023-05-10T03:28:42.563Z,12.5
2023-05-10T03:29:43.726Z,12.5
2023-05-10T03:30:44.937Z,12.6
2023-05-10T03:31:46.100Z,12.5
2023-05-10T03:32:47.485Z,12.6
2023-05-10T03:33:48.742Z,12.6
2023-05-10T03:34:49.938Z,12.6
2023-05-10T03:35:51.221Z,12.6
2023-05-10T03:36:52.375Z,12.6
2023-05-10T03:37:53.514Z,12.6
2023-05-10T03:38:54.676Z,12.6
2023-05-10T03:39:55.842Z,12.6
2023-05-10T03:40:57.451Z,12.6
2023-05-10T03:42:01.478Z,12.6
2023-05-10T03:43:02.761Z,12.7
2023-05-10T03:44:03.897Z,12.7
2023-05-10T03:45:05.063Z,12.7
2023-05-10T03:46:06.401Z,12.7
2023-05-10T03:47:07.539Z,12.7
2023-05-10T03:48:08.827Z,12.7
2023-05-10T03:49:10.276Z,12.7
2023-05-10T03:50:11.614Z,12.7
2023-05-10T03:51:13.103Z,12.7
2023-05-10T03:52:14.226Z,12.7
2023-05-10T03:53:15.400Z,12.7
2023-05-10T03:54:16.564Z,12.7
2023-05-10T03:55:17.721Z,12.8
2023-05-10T03:56:18.931Z,12.8
2023-05-10T03:57:20.058Z,12.8
2023-05-10T03:58:21.356Z,12.8
2023-05-10T03:59:22.514Z,12.8
2023-05-10T04:00:23.680Z,12.8
2023-05-10T04:01:24.884Z,12.8
2023-05-10T04:02:26.071Z,12.8
2023-05-10T04:03:27.623Z,12.8
2023-05-10T04:04:29.209Z,12.8
2023-05-10T04:05:30.393Z,12.9
2023-05-10T04:06:31.582Z,12.9
2023-05-10T04:07:32.872Z,12.9
2023-05-10T04:08:34.038Z,12.9
2023-05-10T04:09:35.211Z,12.9
2023-05-10T04:10:36.375Z,12.9
2023-05-10T04:11:37.559Z,12.9
2023-05-10T04:12:38.703Z,12.9
2023-05-10T04:13:39.910Z,12.9
2023-05-10T04:14:41.079Z,12.9
2023-05-10T04:15:42.259Z,12.9
2023-05-10T04:16:43.501Z,13
2023-05-10T04:17:44.821Z,13
2023-05-10T04:18:46.210Z,13
2023-05-10T04:19:47.375Z,13
2023-05-10T04:20:48.542Z,13
2023-05-10T04:21:49.733Z,13
2023-05-10T04:22:50.882Z,13
2023-05-10T04:23:52.035Z,13
2023-05-10T04:24:53.209Z,13
2023-05-10T04:25:54.368Z,13
2023-05-10T04:26:57.156Z,13
2023-05-10T04:27:58.989Z,13
2023-05-10T04:29:00.155Z,13
2023-05-10T04:30:01.318Z,13
2023-05-10T04:31:02.539Z,13
2023-05-10T04:32:04.071Z,13
2023-05-10T04:33:08.249Z,13
2023-05-10T04:34:09.560Z,13
2023-05-10T04:35:10.715Z,13.1
2023-05-10T04:36:11.898Z,13.1
2023-05-10T04:37:13.070Z,13
2023-05-10T04:38:14.226Z,13.1
2023-05-10T04:39:15.388Z,13.1
2023-05-10T04:40:16.663Z,13.1
2023-05-10T04:41:18.818Z,13.1
2023-05-10T04:42:20.004Z,13.1
2023-05-10T04:43:21.154Z,13.1
2023-05-10T04:44:22.316Z,13.1
2023-05-10T04:45:23.485Z,13.1
2023-05-10T04:46:24.716Z,13.1
2023-05-10T04:47:25.945Z,13.1
2023-05-10T04:48:27.143Z,13.1
2023-05-10T04:49:28.309Z,13.1
2023-05-10T04:50:29.481Z,13.1
2023-05-10T04:51:30.643Z,13.1
2023-05-10T04:52:31.890Z,13
2023-05-10T04:53:33.021Z,13.1
2023-05-10T04:54:34.200Z,13.1
2023-05-10T04:55:35.363Z,13
2023-05-10T04:56:36.520Z,13
2023-05-10T04:57:37.713Z,13
2023-05-10T04:58:38.850Z,13
2023-05-10T04:59:40.018Z,13
2023-05-10T05:00:41.185Z,13.1
2023-05-10T05:01:42.399Z,13.1
2023-05-10T05:02:43.705Z,13
2023-05-10T05:03:45.154Z,13.1
2023-05-10T05:04:46.748Z,13.1
2023-05-10T05:05:47.920Z,13.1
2023-05-10T05:06:49.186Z,13.1
2023-05-10T05:07:54.566Z,13.1
2023-05-10T05:08:55.712Z,13.1
2023-05-10T05:09:56.880Z,13.1
2023-05-10T05:10:58.039Z,13.1
2023-05-10T05:11:59.210Z,13.1
2023-05-10T05:13:00.415Z,13.1
2023-05-10T05:14:01.608Z,13.1
2023-05-10T05:15:02.778Z,13.1
2023-05-10T05:16:03.993Z,13.2
2023-05-10T05:17:05.239Z,13.2
2023-05-10T05:18:06.471Z,13.2
2023-05-10T05:19:07.738Z,13.2
2023-05-10T05:20:08.877Z,13.2
2023-05-10T05:21:10.044Z,13.3
2023-05-10T05:22:11.219Z,13.3
2023-05-10T05:23:12.391Z,13.3
2023-05-10T05:24:13.549Z,13.3
2023-05-10T05:25:14.707Z,13.3
2023-05-10T05:26:15.947Z,13.4
2023-05-10T05:27:17.230Z,13.4
2023-05-10T05:28:18.407Z,13.4
2023-05-10T05:29:19.556Z,13.4
2023-05-10T05:30:20.732Z,13.5
2023-05-10T05:31:21.908Z,13.5
2023-05-10T05:32:23.242Z,13.5
2023-05-10T05:33:24.444Z,13.5
2023-05-10T05:34:25.575Z,13.6
2023-05-10T05:35:26.747Z,13.6
2023-05-10T05:36:27.910Z,13.6
2023-05-10T05:37:29.071Z,13.6
2023-05-10T05:38:30.272Z,13.7
2023-05-10T05:39:31.407Z,13.7
2023-05-10T05:40:32.576Z,13.7
2023-05-10T05:41:33.742Z,13.8
2023-05-10T05:42:34.934Z,13.8
2023-05-10T05:43:38.123Z,13.8
2023-05-10T05:44:39.540Z,13.8
2023-05-10T05:45:40.722Z,13.9
2023-05-10T05:46:41.866Z,13.9
2023-05-10T05:47:43.061Z,13.9
2023-05-10T05:48:44.276Z,14
2023-05-10T05:49:45.419Z,14
2023-05-10T05:50:46.588Z,14
2023-05-10T05:51:47.747Z,14.1
2023-05-10T05:52:48.950Z,14.1
2023-05-10T05:53:50.110Z,14.1
2023-05-10T05:54:51.271Z,14.2
2023-05-10T05:55:52.443Z,14.2
2023-05-10T05:56:53.604Z,14.2
2023-05-10T05:57:54.855Z,14.3
2023-05-10T05:58:56.009Z,14.3
2023-05-10T05:59:57.166Z,14.3
2023-05-10T06:00:58.347Z,14.4
2023-05-10T06:01:59.609Z,14.4
2023-05-10T06:03:00.944Z,14.5
2023-05-10T06:04:03.107Z,14.5
2023-05-10T06:05:04.574Z,14.5
2023-05-10T06:06:05.837Z,14.6
2023-05-10T06:07:06.999Z,14.6
2023-05-10T06:08:08.178Z,14.6
2023-05-10T06:09:09.326Z,14.7
2023-05-10T06:10:10.499Z,14.7
2023-05-10T06:11:11.659Z,14.7
2023-05-10T06:12:12.836Z,14.8
2023-05-10T06:13:14.099Z,14.8
2023-05-10T06:14:15.268Z,14.9
2023-05-10T06:15:16.537Z,14.9
2023-05-10T06:16:18.404Z,15
2023-05-10T06:17:19.599Z,15
2023-05-10T06:18:20.780Z,15.1
2023-05-10T06:19:21.952Z,15.1
2023-05-10T06:20:23.242Z,15.1
2023-05-10T06:21:24.381Z,15.2
2023-05-10T06:22:25.559Z,15.2
2023-05-10T06:23:26.728Z,15.2
2023-05-10T06:24:27.878Z,15.3
2023-05-10T06:25:29.047Z,15.3
2023-05-10T06:26:30.219Z,15.3
2023-05-10T06:27:31.381Z,15.4
2023-05-10T06:28:32.563Z,15.4
2023-05-10T06:29:33.715Z,15.4
2023-05-10T06:30:34.881Z,15.4
2023-05-10T06:31:36.084Z,15.4
2023-05-10T06:32:37.427Z,15.4
2023-05-10T06:33:38.606Z,15.5
2023-05-10T06:34:39.795Z,15.5
2023-05-10T06:35:41.221Z,15.5
2023-05-10T06:36:42.369Z,15.5
2023-05-10T06:37:43.534Z,15.5
2023-05-10T06:38:44.710Z,15.6
2023-05-10T06:39:45.870Z,15.6
2023-05-10T06:40:47.081Z,15.6
2023-05-10T06:41:48.249Z,15.6
2023-05-10T06:42:49.413Z,15.7
2023-05-10T06:43:50.591Z,15.7
2023-05-10T06:44:51.748Z,15.7
2023-05-10T06:45:52.937Z,15.8
2023-05-10T06:46:54.089Z,15.8
2023-05-10T06:47:55.354Z,15.8
2023-05-10T06:48:56.515Z,15.8
2023-05-10T06:49:57.700Z,15.9
2023-05-10T06:50:58.871Z,15.9
2023-05-10T06:52:00.050Z,15.9
2023-05-10T06:53:01.211Z,16
2023-05-10T06:54:02.380Z,16
2023-05-10T06:55:03.544Z,16.1
2023-05-10T06:56:04.734Z,16.1
2023-05-10T06:57:10.971Z,16.1
2023-05-10T06:58:32.715Z,16.2
2023-05-10T06:59:33.921Z,16.2
2023-05-10T07:00:35.167Z,16.3
2023-05-10T07:01:36.411Z,16.3
2023-05-10T07:02:37.662Z,16.3
2023-05-10T07:03:38.839Z,16.4
2023-05-10T07:04:40.010Z,16.4
2023-05-10T07:05:41.256Z,16.5
2023-05-10T07:06:42.892Z,16.5
2023-05-10T07:07:44.058Z,16.6
2023-05-10T07:08:45.237Z,16.6
2023-05-10T07:09:46.390Z,16.6
2023-05-10T07:10:47.621Z,16.7
2023-05-10T07:11:48.787Z,16.7
2023-05-10T07:12:49.986Z,16.7
2023-05-10T07:13:51.379Z,16.8
2023-05-10T07:14:52.545Z,16.8
2023-05-10T07:15:53.738Z,16.9
2023-05-10T07:16:54.895Z,16.9
2023-05-10T07:17:56.177Z,16.9
2023-05-10T07:18:57.953Z,17
2023-05-10T07:19:59.101Z,17
2023-05-10T07:21:00.296Z,17
2023-05-10T07:22:01.541Z,17
2023-05-10T07:23:02.697Z,17
2023-05-10T07:24:03.860Z,17.1
2023-05-10T07:25:05.030Z,17.1
2023-05-10T07:26:06.203Z,17.1
2023-05-10T07:27:07.362Z,17.1
2023-05-10T07:28:08.532Z,17.2
2023-05-10T07:29:09.719Z,17.2
2023-05-10T07:30:10.888Z,17.2
2023-05-10T07:31:12.085Z,17.2
2023-05-10T07:32:13.292Z,17.2
2023-05-10T07:33:14.506Z,17.2
2023-05-10T07:34:15.747Z,17.2
2023-05-10T07:35:17.074Z,17.2
2023-05-10T07:36:19.272Z,17.3
2023-05-10T07:37:23.487Z,17.3
2023-05-10T07:38:24.683Z,17.3
2023-05-10T07:39:27.431Z,17.3
2023-05-10T07:40:29.390Z,17.4
2023-05-10T07:41:30.536Z,17.4
2023-05-10T07:42:31.702Z,17.4
2023-05-10T07:43:32.917Z,17.4
2023-05-10T07:44:34.051Z,17.5
2023-05-10T07:45:35.262Z,17.5
2023-05-10T07:46:36.481Z,17.5
2023-05-10T07:47:37.696Z,17.5
2023-05-10T07:48:38.934Z,17.5
2023-05-10T07:49:40.078Z,17.5
2023-05-10T07:50:41.259Z,17.6
2023-05-10T07:51:45.577Z,17.6
2023-05-10T07:52:46.720Z,17.6
2023-05-10T07:53:48.303Z,17.6
2023-05-10T07:54:49.448Z,17.7
2023-05-10T07:55:50.610Z,17.7
2023-05-10T07:56:51.781Z,17.7
2023-05-10T07:57:52.950Z,17.7
2023-05-10T07:58:54.146Z,17.8
2023-05-10T07:59:55.280Z,17.8
2023-05-10T08:00:56.444Z,17.8
2023-05-10T08:01:57.645Z,17.8
2023-05-10T08:02:58.893Z,17.9
2023-05-10T08:04:00.767Z,17.9
2023-05-10T08:05:02.459Z,17.9
2023-05-10T08:06:06.525Z,17.9
2023-05-10T08:07:07.736Z,17.9
2023-05-10T08:08:08.861Z,17.9
2023-05-10T08:09:10.061Z,17.9
2023-05-10T08:10:11.511Z,18
2023-05-10T08:11:12.753Z,18
2023-05-10T08:12:13.904Z,18
2023-05-10T08:13:15.072Z,18
2023-05-10T08:14:16.251Z,18
2023-05-10T08:15:17.627Z,18
2023-05-10T08:16:19.773Z,18
2023-05-10T08:17:22.114Z,18
2023-05-10T08:18:25.665Z,18
2023-05-10T08:19:26.856Z,18
2023-05-10T08:20:28.007Z,18
2023-05-10T08:21:29.189Z,18
2023-05-10T08:22:30.370Z,18
2023-05-10T08:23:31.513Z,18
2023-05-10T08:24:32.715Z,18
2023-05-10T08:25:33.853Z,18
2023-05-10T08:26:35.014Z,18
2023-05-10T08:27:36.182Z,18
2023-05-10T08:28:37.348Z,18
2023-05-10T08:29:46.527Z,17.9
2023-05-10T08:30:51.545Z,17.9
2023-05-10T08:31:52.770Z,17.9
2023-05-10T08:32:53.959Z,17.9
2023-05-10T08:33:55.124Z,17.9
2023-05-10T08:34:56.308Z,17.9
2023-05-10T08:35:57.460Z,17.9
2023-05-10T08:36:58.617Z,17.9
2023-05-10T08:37:59.811Z,17.9
2023-05-10T08:39:01.028Z,17.9
2023-05-10T08:40:02.244Z,17.9
2023-05-10T08:41:03.443Z,17.9
2023-05-10T08:42:04.589Z,17.9
2023-05-10T08:43:05.753Z,17.9
2023-05-10T08:44:06.920Z,17.8
2023-05-10T08:45:08.166Z,17.8
2023-05-10T08:46:09.387Z,17.8
2023-05-10T08:47:10.754Z,17.8
2023-05-10T08:48:12.135Z,17.8
2023-05-10T08:49:13.296Z,17.8
2023-05-10T08:50:14.498Z,17.8
2023-05-10T08:51:15.634Z,17.8
2023-05-10T08:52:16.801Z,17.8
2023-05-10T08:53:17.993Z,17.8
2023-05-10T08:54:19.141Z,17.8
2023-05-10T08:55:20.576Z,17.8
2023-05-10T08:56:21.699Z,17.8
2023-05-10T08:57:22.866Z,17.8
2023-05-10T08:58:24.029Z,17.8
2023-05-10T08:59:25.206Z,17.8
2023-05-10T09:00:26.388Z,17.8
2023-05-10T09:01:27.609Z,17.7
2023-05-10T09:02:29.102Z,17.7
2023-05-10T09:03:30.276Z,17.7
2023-05-10T09:04:31.532Z,17.7
2023-05-10T09:05:32.977Z,17.7
2023-05-10T09:06:34.138Z,17.8
2023-05-10T09:07:36.351Z,17.7
2023-05-10T09:08:37.666Z,17.8
2023-05-10T09:09:38.830Z,17.8
2023-05-10T09:10:40.008Z,17.8
2023-05-10T09:11:41.193Z,17.8
2023-05-10T09:12:42.391Z,17.8
2023-05-10T09:13:43.592Z,17.9
2023-05-10T09:14:44.843Z,17.9
2023-05-10T09:15:45.991Z,17.9
2023-05-10T09:16:47.165Z,17.9
2023-05-10T09:17:48.431Z,18
2023-05-10T09:18:49.697Z,18
2023-05-10T09:19:51.307Z,18
2023-05-10T09:20:52.489Z,18.1
2023-05-10T09:21:53.640Z,18.1
2023-05-10T09:22:54.812Z,18.1
2023-05-10T09:23:55.996Z,18.1
2023-05-10T09:24:57.160Z,18.2
2023-05-10T09:25:58.353Z,18.2
2023-05-10T09:26:59.499Z,18.2
2023-05-10T09:28:00.690Z,18.3
2023-05-10T09:29:01.853Z,18.3
2023-05-10T09:30:03.020Z,18.3
2023-05-10T09:31:04.219Z,18.3
2023-05-10T09:32:05.379Z,18.3
2023-05-10T09:33:06.569Z,18.4
2023-05-10T09:34:07.748Z,18.4
2023-05-10T09:35:08.938Z,18.4
2023-05-10T09:36:10.141Z,18.5
2023-05-10T09:37:11.279Z,18.5
2023-05-10T09:38:12.451Z,18.6
2023-05-10T09:39:13.634Z,18.6
2023-05-10T09:40:14.843Z,18.6
2023-05-10T09:41:16.041Z,18.7
2023-05-10T09:42:17.171Z,18.7
2023-05-10T09:43:18.340Z,18.7
2023-05-10T09:44:19.508Z,18.7
2023-05-10T09:45:20.667Z,18.7
2023-05-10T09:46:21.972Z,18.7
2023-05-10T09:47:23.131Z,18.7
2023-05-10T09:48:24.423Z,18.7
2023-05-10T09:49:25.588Z,18.8
2023-05-10T09:50:26.769Z,18.8
2023-05-10T09:51:27.953Z,18.8
2023-05-10T09:52:29.111Z,18.8
2023-05-10T09:53:30.278Z,18.8
2023-05-10T09:54:31.474Z,18.9
2023-05-10T09:55:32.624Z,18.9
2023-05-10T09:56:34.118Z,18.9
2023-05-10T09:57:35.308Z,19
2023-05-10T09:58:36.450Z,18.9
2023-05-10T09:59:37.616Z,19
2023-05-10T10:00:38.786Z,19
2023-05-10T10:01:40.192Z,19
2023-05-10T10:02:41.467Z,19
2023-05-10T10:03:42.644Z,19
2023-05-10T10:04:43.828Z,19
2023-05-10T10:05:45.060Z,19.1
2023-05-10T10:06:46.244Z,19.1
2023-05-10T10:07:47.384Z,19.1
2023-05-10T10:08:48.553Z,19.1
2023-05-10T10:09:49.737Z,19.1
2023-05-10T10:10:50.884Z,19.1
2023-05-10T10:11:52.060Z,19.2
2023-05-10T10:12:53.214Z,19.2
2023-05-10T10:13:54.385Z,19.2
2023-05-10T10:14:55.546Z,19.2
2023-05-10T10:15:56.725Z,19.2
2023-05-10T10:17:07.138Z,19.2
2023-05-10T10:18:10.072Z,19.2
2023-05-10T10:19:11.300Z,19.2
2023-05-10T10:20:12.476Z,19.3
2023-05-10T10:21:13.632Z,19.3
2023-05-10T10:22:14.817Z,19.3
2023-05-10T10:23:17.496Z,19.3
2023-05-10T10:24:18.831Z,19.4
2023-05-10T10:25:20.076Z,19.4
2023-05-10T10:26:21.319Z,19.4
2023-05-10T10:27:22.488Z,19.4
2023-05-10T10:28:24.029Z,19.5
2023-05-10T10:29:28.877Z,19.5
2023-05-10T10:30:30.040Z,19.5
2023-05-10T10:31:31.259Z,19.5
2023-05-10T10:32:32.504Z,19.5
2023-05-10T10:33:33.773Z,19.5
2023-05-10T10:34:34.921Z,19.4
2023-05-10T10:35:36.091Z,19.4
2023-05-10T10:36:37.252Z,19.4
2023-05-10T10:37:38.444Z,19.3
2023-05-10T10:38:39.608Z,19.3
2023-05-10T10:39:40.774Z,19.3
2023-05-10T10:40:41.964Z,19.3
2023-05-10T10:41:43.411Z,19.2
2023-05-10T10:42:44.593Z,19.2
2023-05-10T10:43:45.746Z,19.2
2023-05-10T10:44:46.934Z,19.2
2023-05-10T10:45:48.076Z,19.2
2023-05-10T10:46:49.251Z,19.2
2023-05-10T10:47:50.503Z,19.2
2023-05-10T10:48:51.761Z,19.2
2023-05-10T10:49:53.111Z,19.2
2023-05-10T10:50:54.343Z,19.2
2023-05-10T10:51:55.505Z,19.2
2023-05-10T10:52:56.686Z,19.2
2023-05-10T10:53:57.894Z,19.2
2023-05-10T10:54:59.081Z,19.3
2023-05-10T10:56:00.288Z,19.3
2023-05-10T10:57:01.415Z,19.4
2023-05-10T10:58:02.933Z,19.4
2023-05-10T10:59:04.059Z,19.5
2023-05-10T11:00:05.227Z,19.5
2023-05-10T11:01:06.422Z,19.5
2023-05-10T11:02:07.602Z,19.5
2023-05-10T11:03:08.868Z,19.6
2023-05-10T11:04:10.806Z,19.6
2023-05-10T11:05:12.007Z,19.6
2023-05-10T11:06:13.173Z,19.6
2023-05-10T11:07:14.340Z,19.6
2023-05-10T11:08:15.524Z,19.7
2023-05-10T11:09:16.668Z,19.7
2023-05-10T11:10:17.861Z,19.7
2023-05-10T11:11:19.049Z,19.7
2023-05-10T11:12:20.188Z,19.7
2023-05-10T11:13:21.385Z,19.7
2023-05-10T11:14:22.519Z,19.7
2023-05-10T11:15:23.683Z,19.7
2023-05-10T11:16:25.124Z,19.7
2023-05-10T11:17:26.885Z,19.7
2023-05-10T11:18:28.144Z,19.7
2023-05-10T11:19:29.295Z,19.7
2023-05-10T11:20:30.447Z,19.7
2023-05-10T11:21:31.612Z,19.7
2023-05-10T11:22:32.780Z,19.7
2023-05-10T11:23:34.007Z,19.7
2023-05-10T11:24:35.132Z,19.7
2023-05-10T11:25:36.301Z,19.7
2023-05-10T11:26:37.510Z,19.7
2023-05-10T11:27:38.717Z,19.7
2023-05-10T11:28:39.898Z,19.7
2023-05-10T11:29:41.038Z,19.7
2023-05-10T11:30:42.217Z,19.7
2023-05-10T11:31:43.504Z,19.7
2023-05-10T11:32:44.671Z,19.7
2023-05-10T11:33:45.927Z,19.6
2023-05-10T11:34:47.095Z,19.6
2023-05-10T11:35:48.240Z,19.6
2023-05-10T11:36:49.407Z,19.6
2023-05-10T11:37:50.582Z,19.5
2023-05-10T11:38:51.769Z,19.5
2023-05-10T11:39:52.969Z,19.5
2023-05-10T11:40:54.141Z,19.5
2023-05-10T11:41:55.323Z,19.5
2023-05-10T11:42:56.468Z,19.5
2023-05-10T11:43:57.649Z,19.4
2023-05-10T11:44:58.802Z,19.4
2023-05-10T11:46:00.002Z,19.4
2023-05-10T11:47:01.251Z,19.4
2023-05-10T11:48:02.404Z,19.4
2023-05-10T11:49:03.824Z,19.4
2023-05-10T11:50:04.968Z,19.3
2023-05-10T11:51:06.132Z,19.3
2023-05-10T11:52:07.333Z,19.3
2023-05-10T11:53:08.477Z,19.3
2023-05-10T11:54:09.676Z,19.3
2023-05-10T11:55:10.919Z,19.3
2023-05-10T11:56:12.085Z,19.3
2023-05-10T11:57:13.271Z,19.4
2023-05-10T11:58:14.413Z,19.4
2023-05-10T11:59:16.083Z,19.4
2023-05-10T12:00:17.370Z,19.4
2023-05-10T12:01:19.904Z,19.4
2023-05-10T12:02:21.151Z,19.4
2023-05-10T12:03:22.414Z,19.4
2023-05-10T12:04:23.890Z,19.5
2023-05-10T12:05:25.087Z,19.5
2023-05-10T12:06:26.240Z,19.5
2023-05-10T12:07:27.424Z,19.5
2023-05-10T12:08:28.586Z,19.5
2023-05-10T12:09:43.000Z,19.6
2023-05-10T12:10:45.336Z,19.6
2023-05-10T12:14:52.049Z,19.7
2023-05-10T12:15:55.373Z,19.7
2023-05-10T12:18:20.964Z,19.8
2023-05-10T12:19:42.591Z,19.8
2023-05-10T12:22:13.294Z,19.8
2023-05-10T12:23:19.497Z,19.9
2023-05-10T12:24:32.537Z,19.9
2023-05-10T12:25:58.159Z,19.9
2023-05-10T12:27:04.376Z,20
2023-05-10T12:28:05.751Z,20
2023-05-10T12:29:09.589Z,20
2023-05-10T12:30:21.045Z,20.1
2023-05-10T12:31:25.322Z,20.1
2023-05-10T12:32:39.869Z,20.1
2023-05-10T12:33:53.194Z,20.1
2023-05-10T12:35:04.522Z,20.2
2023-05-10T12:36:37.128Z,20.2
2023-05-10T12:37:38.286Z,20.2
2023-05-10T12:38:41.504Z,20.2
2023-05-10T13:19:31.268Z,21.8
2023-05-10T13:20:51.847Z,21.8
2023-05-10T13:22:40.057Z,21.8
2023-05-10T13:23:54.361Z,21.8
2023-05-10T13:25:02.199Z,21.7
2023-05-10T13:26:40.511Z,21.7
2023-05-10T13:27:53.112Z,21.7
2023-05-10T13:29:20.332Z,21.7
2023-05-10T13:30:24.246Z,21.7
2023-05-10T13:32:55.015Z,21.6
2023-05-10T13:33:56.317Z,21.6
2023-05-10T13:35:05.162Z,21.5
2023-05-10T13:36:13.642Z,21.5
2023-05-10T13:37:23.645Z,21.5
2023-05-10T13:38:37.881Z,21.5
2023-05-10T13:39:45.143Z,21.4
2023-05-10T13:40:52.115Z,21.4
2023-05-10T13:42:02.067Z,21.4
2023-05-10T13:43:03.260Z,21.4
2023-05-10T13:45:16.301Z,21.3
2023-05-10T13:46:23.898Z,21.3
2023-05-10T13:47:34.438Z,21.3
2023-05-10T13:48:40.959Z,21.2
2023-05-10T13:49:46.113Z,21.2
2023-05-10T13:50:53.184Z,21.2
2023-05-10T13:51:59.753Z,21.2
2023-05-10T13:53:03.086Z,21.2
2023-05-10T13:54:07.315Z,21.2
2023-05-10T13:55:18.304Z,21.2
2023-05-10T13:56:40.834Z,21.2
2023-05-10T13:57:44.864Z,21.2
2023-05-10T13:58:46.055Z,21.2
2023-05-10T13:59:49.696Z,21.2
2023-05-10T14:01:06.920Z,21.3
2023-05-10T14:02:18.256Z,21.3
2023-05-10T14:03:34.793Z,21.3
2023-05-10T14:04:59.614Z,21.4
2023-05-10T14:06:03.637Z,21.4
2023-05-10T14:07:10.384Z,21.4
2023-05-10T14:08:20.376Z,21.5
2023-05-10T14:09:31.895Z,21.5
2023-05-10T14:10:55.111Z,21.5
2023-05-10T14:12:05.344Z,21.6
2023-05-10T14:13:09.069Z,21.6
2023-05-10T14:14:16.008Z,21.6
2023-05-10T14:15:45.454Z,21.7
2023-05-10T14:16:56.644Z,21.7
2023-05-10T14:18:23.846Z,21.7
2023-05-10T14:19:33.702Z,21.8
2023-05-10T14:20:49.269Z,21.8
2023-05-10T14:22:02.120Z,21.8
2023-05-10T14:24:11.064Z,21.9
2023-05-10T14:25:26.281Z,21.9
2023-05-10T14:26:27.439Z,21.9
2023-05-10T14:27:29.152Z,22
2023-05-10T14:30:21.924Z,22
2023-05-10T14:31:47.147Z,22.1
2023-05-10T14:33:09.536Z,22.1
2023-05-10T14:34:13.573Z,22.1
2023-05-10T14:36:42.724Z,22.2
2023-05-10T14:37:52.535Z,22.2
2023-05-10T14:38:59.840Z,22.2
2023-05-10T14:40:07.951Z,22.3
2023-05-10T14:41:20.041Z,22.3
2023-05-10T14:42:25.097Z,22.3
2023-05-10T14:43:26.255Z,22.4
2023-05-10T14:44:27.460Z,22.4
2023-05-10T14:45:40.523Z,22.5
2023-05-10T14:46:46.726Z,22.5
2023-05-10T14:47:47.995Z,22.6
2023-05-10T14:48:52.078Z,22.6